createdAt,value
2022-10-09T08:37:49.223Z,100692.38
2022-10-09T08:39:51.896Z,100826.56
2022-10-09T08:41:55.803Z,100828.44
2022-10-09T08:44:06.288Z,100843.06
2022-10-09T08:46:26.556Z,100848.03
2022-10-09T08:48:29.829Z,100857.84
2022-10-09T08:50:38.301Z,100853.91
2022-10-09T08:52:59.019Z,100855.78
2022-10-09T08:55:26.909Z,100870.66
2022-10-09T08:57:33.294Z,100882.75
2022-10-09T08:59:36.102Z,100899.50
2022-10-09T09:01:57.209Z,100932.47
2022-10-09T09:04:25.457Z,100953.72
2022-10-09T09:06:37.574Z,100950.47
2022-10-09T09:08:57.830Z,100925.63
2022-10-09T09:11:02.715Z,100932.37
2022-10-09T09:13:18.500Z,100936.56
2022-10-09T09:15:33.975Z,100930.50
2022-10-09T09:17:52.422Z,100925.75
2022-10-09T09:19:59.058Z,100944.06
2022-10-09T09:22:01.606Z,100968.47
2022-10-09T09:24:15.552Z,101007.44
2022-10-09T09:26:22.266Z,101025.69
2022-10-09T09:28:34.867Z,101022.16
2022-10-09T09:30:55.850Z,101017.03
2022-10-09T09:33:10.800Z,101016.56
2022-10-09T09:35:25.346Z,101011.62
2022-10-09T09:37:27.732Z,101019.69
2022-10-09T09:40:30.923Z,100999.13
2022-10-09T09:42:19.381Z,101007.00
2022-10-09T09:44:22.106Z,100999.34
2022-10-09T09:46:29.277Z,101003.00
2022-10-09T09:48:34.755Z,101008.59
2022-10-09T09:50:56.261Z,101006.22
2022-10-09T09:53:13.003Z,101009.00
2022-10-09T09:55:34.427Z,101010.22
2022-10-09T09:57:42.702Z,101011.91
2022-10-09T09:59:45.424Z,101014.25
2022-10-09T10:01:47.731Z,101013.91
2022-10-09T10:03:52.573Z,101022.69
2022-10-09T10:05:54.918Z,101030.97
2022-10-09T10:07:57.712Z,101020.03
2022-10-09T10:10:10.450Z,101033.41
2022-10-09T10:12:17.040Z,101040.03
2022-10-09T10:14:19.506Z,101037.03
2022-10-09T10:16:29.504Z,101043.87
2022-10-09T10:18:41.823Z,101047.63
2022-10-09T10:20:54.432Z,101052.28
2022-10-09T10:22:58.456Z,101064.03
2022-10-09T10:25:01.189Z,101082.09
2022-10-09T10:27:26.879Z,101089.66
2022-10-09T10:29:37.433Z,101077.84
2022-10-09T10:31:54.969Z,101082.00
2022-10-09T10:33:57.963Z,101096.28
2022-10-09T10:36:01.361Z,101103.56
2022-10-09T10:38:39.407Z,101104.28
2022-10-09T10:41:23.400Z,101118.37
2022-10-09T10:43:42.231Z,101120.72
2022-10-09T10:45:44.373Z,101116.72
2022-10-09T10:47:53.329Z,101111.91
2022-10-09T10:49:55.841Z,101136.09
2022-10-09T10:52:39.802Z,101141.91
2022-10-09T10:54:57.889Z,101145.59
2022-10-09T10:57:26.034Z,101132.69
2022-10-09T10:59:31.058Z,101134.84
2022-10-09T11:01:45.167Z,101133.94
2022-10-09T11:04:03.195Z,101139.59
2022-10-09T11:06:33.842Z,101121.97
2022-10-09T11:08:41.956Z,101116.09
2022-10-09T11:11:34.054Z,101108.56
2022-10-09T11:13:56.217Z,101095.75
2022-10-09T11:16:25.620Z,101098.50
2022-10-09T11:19:05.190Z,101107.81
2022-10-09T11:21:47.058Z,101098.50
2022-10-09T11:24:14.260Z,101092.97
2022-10-09T11:26:34.030Z,101089.72
2022-10-09T11:28:52.501Z,101092.62
2022-10-09T11:31:02.750Z,101081.44
2022-10-09T11:33:36.195Z,101079.25
2022-10-09T11:35:46.816Z,101077.22
2022-10-09T11:38:01.727Z,101088.75
2022-10-09T11:40:15.079Z,101098.25
2022-10-09T11:42:21.727Z,101098.44
2022-10-09T11:44:42.012Z,101136.84
2022-10-09T11:46:47.685Z,101148.03
2022-10-09T11:48:59.923Z,101183.28
2022-10-09T11:51:16.106Z,101208.25
2022-10-09T11:53:21.893Z,101229.81
2022-10-09T11:55:30.428Z,101233.97
2022-10-09T11:57:35.935Z,101235.34
2022-10-09T11:59:42.329Z,101236.94
2022-10-09T12:01:44.863Z,101242.56
2022-10-09T12:04:00.611Z,101247.97
2022-10-09T12:06:23.327Z,101233.47
2022-10-09T12:08:27.343Z,101222.12
2022-10-09T12:10:33.780Z,101206.47
2022-10-09T12:12:38.841Z,101195.81
2022-10-09T12:14:42.163Z,101198.94
2022-10-09T12:16:46.528Z,101189.16
2022-10-09T12:18:48.941Z,101176.50
2022-10-09T12:20:53.276Z,101170.34
2022-10-09T12:23:25.091Z,101168.47
2022-10-09T12:25:29.523Z,101155.34
2022-10-09T12:27:36.327Z,101151.94
2022-10-09T12:29:54.930Z,101141.31
2022-10-09T12:32:02.890Z,101132.44
2022-10-09T12:34:16.758Z,101123.38
2022-10-09T12:36:25.941Z,101114.31
2022-10-09T12:38:31.743Z,101106.09
2022-10-09T12:40:34.140Z,101093.12
2022-10-09T12:42:37.197Z,101092.16
2022-10-09T12:44:40.320Z,101085.09
2022-10-09T12:46:43.041Z,101106.72
2022-10-09T12:48:46.213Z,101118.03
2022-10-09T12:50:49.643Z,101093.97
2022-10-09T12:53:00.646Z,101096.94
2022-10-09T12:55:26.284Z,101083.44
2022-10-09T12:57:29.399Z,101078.19
2022-10-09T12:59:33.144Z,101072.31
2022-10-09T13:01:36.048Z,101066.28
2022-10-09T13:03:41.530Z,101068.41
2022-10-09T13:05:46.723Z,101062.69
2022-10-09T13:07:55.599Z,101063.56
2022-10-09T13:10:04.030Z,101054.31
2022-10-09T13:12:10.123Z,101062.09
2022-10-09T13:14:35.702Z,101063.13
2022-10-09T13:16:43.593Z,101058.09
2022-10-09T13:19:03.293Z,101066.50
2022-10-09T13:21:29.044Z,101069.44
2022-10-09T13:23:35.918Z,101081.16
2022-10-09T13:25:43.174Z,101071.34
2022-10-09T13:27:45.857Z,101064.37
2022-10-09T13:29:48.773Z,101062.53
2022-10-09T13:31:50.989Z,101057.16
2022-10-09T13:33:54.088Z,101049.41
2022-10-09T13:35:56.291Z,101036.94
2022-10-09T13:37:58.515Z,101036.25
2022-10-09T13:40:01.124Z,101045.81
2022-10-09T13:42:03.663Z,101046.31
2022-10-09T13:44:06.044Z,101059.69
2022-10-09T13:46:09.070Z,101055.69
2022-10-09T13:48:11.347Z,101067.87
2022-10-09T13:50:14.630Z,101064.69
2022-10-09T13:52:17.154Z,101058.81
2022-10-09T13:54:19.480Z,101068.75
2022-10-09T13:56:21.675Z,101056.53
2022-10-09T13:58:24.273Z,101054.50
2022-10-09T14:00:26.540Z,101043.75
2022-10-09T14:02:29.023Z,101056.41
2022-10-09T14:04:31.338Z,101051.03
2022-10-09T14:06:36.069Z,101053.38
2022-10-09T14:08:38.687Z,101049.59
2022-10-09T14:10:45.069Z,101057.72
2022-10-09T14:12:47.720Z,101035.47
2022-10-09T14:14:50.549Z,101024.53
2022-10-09T14:16:52.952Z,101024.41
2022-10-09T14:19:04.722Z,101027.00
2022-10-09T14:21:15.782Z,101020.31
2022-10-09T14:23:18.236Z,101046.44
2022-10-09T14:25:20.548Z,101040.78
2022-10-09T14:27:23.669Z,101035.53
2022-10-09T14:29:26.166Z,101026.44
2022-10-09T14:31:29.075Z,101033.37
2022-10-09T14:33:31.744Z,101037.69
2022-10-09T14:35:36.326Z,101033.09
2022-10-09T14:37:42.332Z,101035.00
2022-10-09T14:39:46.767Z,101027.03
2022-10-09T14:41:49.131Z,101027.63
2022-10-09T14:43:56.923Z,101031.72
2022-10-09T14:46:06.682Z,101031.25
2022-10-09T14:48:09.120Z,101028.59
2022-10-09T14:50:11.601Z,101035.72
2022-10-09T14:52:15.767Z,101044.78
2022-10-09T14:54:17.995Z,101044.53
2022-10-09T14:56:21.087Z,101045.47
2022-10-09T14:58:24.384Z,101050.72
2022-10-09T15:00:28.393Z,101044.19
2022-10-09T15:02:31.223Z,101028.91
2022-10-09T15:04:37.974Z,101008.66
2022-10-09T15:06:40.237Z,101007.31
2022-10-09T15:08:43.549Z,101013.56
2022-10-09T15:10:46.136Z,101037.16
2022-10-09T15:12:48.367Z,101045.00
2022-10-09T15:14:50.562Z,101036.97
2022-10-09T15:16:53.278Z,101034.31
2022-10-09T15:18:55.921Z,101018.69
2022-10-09T15:20:59.850Z,101011.81
2022-10-09T15:23:02.379Z,101014.72
2022-10-09T15:25:04.805Z,101025.28
2022-10-09T15:30:49.001Z,101019.31
2022-10-09T15:32:52.025Z,101015.72
2022-10-09T15:34:54.590Z,101027.28
2022-10-09T15:36:58.394Z,101034.84
2022-10-09T15:39:08.386Z,101028.00
2022-10-09T15:41:28.319Z,101031.00
2022-10-09T15:43:31.883Z,101028.34
2022-10-09T15:45:35.373Z,101036.63
2022-10-09T15:47:50.432Z,101033.63
2022-10-09T15:49:54.377Z,101024.13
2022-10-09T15:52:00.696Z,101021.09
2022-10-09T15:54:04.272Z,101023.53
2022-10-09T15:56:07.932Z,101037.00
2022-10-09T15:58:11.046Z,101036.75
2022-10-09T16:00:14.346Z,101031.78
2022-10-09T16:02:17.343Z,101028.56
2022-10-09T16:04:20.336Z,101030.25
2022-10-09T16:06:23.846Z,101018.44
2022-10-09T16:08:26.972Z,101014.19
2022-10-09T16:10:29.871Z,101019.22
2022-10-09T16:12:33.659Z,101020.28
2022-10-09T16:14:38.291Z,101014.59
2022-10-09T16:16:41.221Z,101017.31
2022-10-09T16:18:44.463Z,101022.12
2022-10-09T16:20:47.922Z,101022.09
2022-10-09T16:22:51.052Z,101025.19
2022-10-09T16:24:54.707Z,101028.88
2022-10-09T16:26:57.672Z,101024.44
2022-10-09T16:29:00.598Z,101025.91
2022-10-09T16:31:03.861Z,101026.13
2022-10-09T16:33:11.619Z,101030.66
2022-10-09T16:35:15.349Z,101036.47
2022-10-09T16:37:18.448Z,101049.16
2022-10-09T16:39:23.752Z,101052.56
2022-10-09T16:41:26.873Z,101053.81
2022-10-09T16:43:29.380Z,101060.63
2022-10-09T16:45:32.156Z,101055.22
2022-10-09T16:47:35.128Z,101058.81
2022-10-09T16:49:37.687Z,101067.69
2022-10-09T16:51:43.179Z,101065.13
2022-10-09T16:53:49.765Z,101072.09
2022-10-09T16:55:52.356Z,101075.47
2022-10-09T16:57:56.987Z,101079.19
2022-10-09T16:59:59.706Z,101080.22
2022-10-09T17:02:03.725Z,101087.28
2022-10-09T17:04:06.591Z,101079.38
2022-10-09T17:06:11.901Z,101090.87
2022-10-09T17:08:16.182Z,101088.66
2022-10-09T17:10:21.103Z,101087.56
2022-10-09T17:12:30.254Z,101085.69
2022-10-09T17:15:17.490Z,101089.66
2022-10-09T17:17:54.455Z,101104.66
2022-10-09T17:20:39.744Z,101107.16
2022-10-09T17:23:42.021Z,101117.97
2022-10-09T17:31:59.116Z,101126.72
2022-10-09T17:34:51.706Z,101117.16
2022-10-09T17:37:17.616Z,101115.06
2022-10-09T17:39:20.291Z,101126.47
2022-10-09T17:41:24.370Z,101132.34
2022-10-09T17:43:26.710Z,101132.03
2022-10-09T17:45:29.215Z,101140.19
2022-10-09T17:47:31.506Z,101133.47
2022-10-09T17:49:33.723Z,101126.50
2022-10-09T17:51:39.785Z,101127.72
2022-10-09T17:53:42.805Z,101128.87
2022-10-09T17:55:45.433Z,101129.63
2022-10-09T17:57:48.297Z,101122.94
2022-10-09T17:59:50.733Z,101131.78
2022-10-09T18:01:54.189Z,101131.97
2022-10-09T18:03:59.000Z,101131.72
2022-10-09T18:06:06.107Z,101126.34
2022-10-09T18:08:08.752Z,101122.59
2022-10-09T18:10:11.354Z,101128.31
2022-10-09T18:12:13.708Z,101133.88
2022-10-09T18:14:16.042Z,101127.56
2022-10-09T18:16:36.532Z,101128.63
2022-10-09T18:18:39.199Z,101131.41
2022-10-09T18:20:42.103Z,101130.19
2022-10-09T18:22:44.950Z,101130.28
2022-10-09T18:24:47.703Z,101132.94
2022-10-09T18:26:50.160Z,101143.66
2022-10-09T18:28:52.918Z,101133.28
2022-10-09T18:30:56.115Z,101142.03
2022-10-09T18:32:58.476Z,101139.22
2022-10-09T18:35:01.208Z,101135.66
2022-10-09T18:37:03.888Z,101144.97
2022-10-09T18:39:13.513Z,101143.66
2022-10-09T18:41:17.428Z,101146.44
2022-10-09T18:43:20.037Z,101151.56
2022-10-09T18:45:23.505Z,101151.25
2022-10-09T18:47:28.954Z,101162.56
2022-10-09T18:49:32.064Z,101154.25
2022-10-09T18:51:34.555Z,101161.03
2022-10-09T18:53:39.055Z,101157.47
2022-10-09T18:55:43.435Z,101159.22
2022-10-09T18:57:47.792Z,101157.84
2022-10-09T18:59:52.884Z,101162.75
2022-10-09T19:01:55.685Z,101163.00
2022-10-09T19:03:58.339Z,101158.03
2022-10-09T19:06:01.080Z,101159.56
2022-10-09T19:08:03.672Z,101155.97
2022-10-09T19:10:07.771Z,101157.09
2022-10-09T19:12:10.671Z,101157.66
2022-10-09T19:14:13.784Z,101164.16
2022-10-09T19:16:16.013Z,101162.91
2022-10-09T19:18:18.677Z,101169.31
2022-10-09T19:20:20.927Z,101171.03
2022-10-09T19:22:24.183Z,101177.13
2022-10-09T19:24:27.773Z,101172.44
2022-10-09T19:26:33.473Z,101176.31
2022-10-09T19:28:38.586Z,101172.44
2022-10-09T19:30:42.724Z,101182.87
2022-10-09T19:32:45.945Z,101187.75
2022-10-09T19:34:48.317Z,101179.84
2022-10-09T19:36:51.465Z,101179.84
2022-10-09T19:38:54.836Z,101178.00
2022-10-09T19:41:06.986Z,101186.91
2022-10-09T19:43:10.528Z,101182.69
2022-10-09T19:45:12.825Z,101180.22
2022-10-09T19:47:15.841Z,101181.34
2022-10-09T19:49:18.718Z,101193.22
2022-10-09T19:51:26.481Z,101183.22
2022-10-09T19:53:28.777Z,101185.19
2022-10-09T19:55:33.305Z,101181.84
2022-10-09T19:57:35.759Z,101179.13
2022-10-09T19:59:38.383Z,101185.97
2022-10-09T20:01:41.049Z,101181.59
2022-10-09T20:03:44.769Z,101173.97
2022-10-09T20:05:47.077Z,101184.25
2022-10-09T20:07:50.057Z,101190.09
2022-10-09T20:09:52.550Z,101191.47
2022-10-09T20:11:54.805Z,101193.00
2022-10-09T20:13:58.830Z,101190.88
2022-10-09T20:16:02.922Z,101186.41
2022-10-09T20:18:05.218Z,101191.16
2022-10-09T20:20:07.968Z,101184.00
2022-10-09T20:22:11.018Z,101189.53
2022-10-09T20:24:13.226Z,101187.75
2022-10-09T20:26:17.977Z,101189.53
2022-10-09T20:28:20.490Z,101194.72
2022-10-09T20:30:22.769Z,101197.69
2022-10-09T20:32:25.569Z,101211.34
2022-10-09T20:34:28.090Z,101214.19
2022-10-09T20:36:33.518Z,101217.44
2022-10-09T20:38:35.992Z,101228.03
2022-10-09T20:40:38.472Z,101227.69
2022-10-09T20:42:40.735Z,101235.62
2022-10-09T20:44:43.122Z,101237.81
2022-10-09T20:46:45.772Z,101241.81
2022-10-09T20:48:48.308Z,101245.47
2022-10-09T20:50:50.611Z,101253.38
2022-10-09T20:52:53.267Z,101258.00
2022-10-09T20:54:55.599Z,101256.25
2022-10-09T20:56:57.842Z,101257.72
2022-10-09T20:59:01.192Z,101260.34
2022-10-09T21:01:06.233Z,101263.00
2022-10-09T21:03:12.287Z,101266.25
2022-10-09T21:05:15.134Z,101256.06
2022-10-09T21:07:17.388Z,101275.16
2022-10-09T21:09:19.673Z,101279.69
2022-10-09T21:11:22.977Z,101275.50
2022-10-09T21:13:25.261Z,101287.50
2022-10-09T21:15:27.823Z,101280.13
2022-10-09T21:17:31.005Z,101281.47
2022-10-09T21:19:33.763Z,101287.87
2022-10-09T21:21:36.065Z,101288.72
2022-10-09T21:23:39.296Z,101282.59
2022-10-09T21:25:53.113Z,101275.66
2022-10-09T21:27:55.356Z,101277.06
2022-10-09T21:29:57.843Z,101278.34
2022-10-09T21:32:00.160Z,101276.44
2022-10-09T21:34:02.706Z,101280.63
2022-10-09T21:36:10.769Z,101274.75
2022-10-09T21:38:16.707Z,101277.72
2022-10-09T21:40:19.018Z,101276.31
2022-10-09T21:42:21.517Z,101280.31
2022-10-09T21:44:23.870Z,101272.50
2022-10-09T21:46:26.905Z,101274.81
2022-10-09T21:48:29.413Z,101273.56
2022-10-09T21:50:33.238Z,101279.59
